sensor_id;sensor_type;location;lat;lon;timestamp;P1;durP1;ratioP1;P2;durP2;ratioP2
6215;SDS011;3141;49.234;9.326;2024-03-29T00:00:06;3.83;;;1.60;;
6215;SDS011;3141;49.234;9.326;2024-03-29T00:00:50;2.63;;;1.65;;
6215;SDS011;3141;49.234;9.326;2024-03-29T00:01:32;2.30;;;1.70;;
6215;SDS011;3141;49.234;9.326;2024-03-29T00:02:15;3.80;;;1.80;;
6215;SDS011;3141;49.234;9.326;2024-03-29T00:02:57;3.93;;;1.40;;
6215;SDS011;3141;49.234;9.326;2024-03-29T00:03:40;2.83;;;1.70;;
6215;SDS011;3141;49.234;9.326;2024-03-29T00:04:22;3.67;;;1.47;;
6215;SDS011;3141;49.234;9.326;2024-03-29T00:05:04;2.77;;;1.40;;
6215;SDS011;3141;49.234;9.326;2024-03-29T00:05:49;3.40;;;1.48;;
6215;SDS011;3141;49.234;9.326;2024-03-29T00:06:31;3.27;;;1.33;;
6215;SDS011;3141;49.234;9.326;2024-03-29T00:07:13;4.00;;;1.50;;
6215;SDS011;3141;49.234;9.326;2024-03-29T00:07:56;6.10;;;1.70;;
6215;SDS011;3141;49.234;9.326;2024-03-29T00:08:38;4.83;;;1.53;;
6215;SDS011;3141;49.234;9.326;2024-03-29T00:09:21;5.47;;;1.60;;
6215;SDS011;3141;49.234;9.326;2024-03-29T00:10:03;2.27;;;1.33;;
6215;SDS011;3141;49.234;9.326;2024-03-29T00:10:46;6.13;;;1.70;;
6215;SDS011;3141;49.234;9.326;2024-03-29T00:11:29;1.73;;;1.20;;
6215;SDS011;3141;49.234;9.326;2024-03-29T00:12:13;2.15;;;1.50;;
6215;SDS011;3141;49.234;9.326;2024-03-29T00:12:57;6.40;;;1.40;;
6215;SDS011;3141;49.234;9.326;2024-03-29T00:13:39;5.20;;;1.40;;
6215;SDS011;3141;49.234;9.326;2024-03-29T00:14:22;1.37;;;1.13;;
6215;SDS011;3141;49.234;9.326;2024-03-29T00:15:04;2.20;;;1.27;;
6215;SDS011;3141;49.234;9.326;2024-03-29T00:15:47;5.23;;;2.10;;
6215;SDS011;3141;49.234;9.326;2024-03-29T00:16:29;3.13;;;1.50;;
6215;SDS011;3141;49.234;9.326;2024-03-29T00:17:11;3.97;;;1.50;;
6215;SDS011;3141;49.234;9.326;2024-03-29T00:17:54;2.07;;;1.47;;
6215;SDS011;3141;49.234;9.326;2024-03-29T00:18:36;4.87;;;1.87;;
6215;SDS011;3141;49.234;9.326;2024-03-29T00:19:18;2.30;;;1.37;;
6215;SDS011;3141;49.234;9.326;2024-03-29T00:20:01;1.83;;;1.40;;
6215;SDS011;3141;49.234;9.326;2024-03-29T00:20:43;2.70;;;1.53;;
6215;SDS011;3141;49.234;9.326;2024-03-29T00:21:26;3.43;;;1.87;;
6215;SDS011;3141;49.234;9.326;2024-03-29T00:22:08;3.40;;;1.60;;
6215;SDS011;3141;49.234;9.326;2024-03-29T00:22:51;4.30;;;1.87;;
6215;SDS011;3141;49.234;9.326;2024-03-29T00:23:33;2.03;;;1.27;;
6215;SDS011;3141;49.234;9.326;2024-03-29T00:24:16;2.30;;;1.30;;
6215;SDS011;3141;49.234;9.326;2024-03-29T00:24:58;2.50;;;1.67;;
6215;SDS011;3141;49.234;9.326;2024-03-29T00:25:40;2.33;;;1.53;;
6215;SDS011;3141;49.234;9.326;2024-03-29T00:26:23;3.17;;;1.40;;
6215;SDS011;3141;49.234;9.326;2024-03-29T00:27:05;4.97;;;1.17;;
6215;SDS011;3141;49.234;9.326;2024-03-29T00:27:48;2.43;;;1.40;;
6215;SDS011;3141;49.234;9.326;2024-03-29T00:28:30;3.57;;;1.50;;
6215;SDS011;3141;49.234;9.326;2024-03-29T00:29:12;2.27;;;1.47;;
6215;SDS011;3141;49.234;9.326;2024-03-29T00:29:55;3.20;;;1.33;;
6215;SDS011;3141;49.234;9.326;2024-03-29T00:30:37;3.20;;;1.50;;
6215;SDS011;3141;49.234;9.326;2024-03-29T00:31:19;5.10;;;1.27;;
6215;SDS011;3141;49.234;9.326;2024-03-29T00:32:02;1.97;;;1.40;;
6215;SDS011;3141;49.234;9.326;2024-03-29T00:32:44;1.33;;;1.23;;
6215;SDS011;3141;49.234;9.326;2024-03-29T00:33:26;1.87;;;1.07;;
6215;SDS011;3141;49.234;9.326;2024-03-29T00:34:08;2.70;;;1.37;;
6215;SDS011;3141;49.234;9.326;2024-03-29T00:34:51;1.53;;;1.00;;
6215;SDS011;3141;49.234;9.326;2024-03-29T00:35:34;4.95;;;1.45;;
6215;SDS011;3141;49.234;9.326;2024-03-29T00:36:16;5.00;;;1.30;;
6215;SDS011;3141;49.234;9.326;2024-03-29T00:36:59;1.27;;;1.10;;
6215;SDS011;3141;49.234;9.326;2024-03-29T00:37:41;2.50;;;1.50;;
6215;SDS011;3141;49.234;9.326;2024-03-29T00:38:23;2.43;;;0.77;;
6215;SDS011;3141;49.234;9.326;2024-03-29T00:39:05;4.07;;;1.47;;
6215;SDS011;3141;49.234;9.326;2024-03-29T00:39:53;2.55;;;1.17;;
6215;SDS011;3141;49.234;9.326;2024-03-29T00:40:35;2.77;;;1.07;;
6215;SDS011;3141;49.234;9.326;2024-03-29T00:41:18;1.77;;;0.90;;
6215;SDS011;3141;49.234;9.326;2024-03-29T00:42:00;7.37;;;1.13;;
6215;SDS011;3141;49.234;9.326;2024-03-29T00:42:42;3.20;;;1.03;;
6215;SDS011;3141;49.234;9.326;2024-03-29T00:43:25;2.30;;;1.00;;
6215;SDS011;3141;49.234;9.326;2024-03-29T00:44:07;4.37;;;1.33;;
6215;SDS011;3141;49.234;9.326;2024-03-29T00:44:50;2.07;;;1.10;;
6215;SDS011;3141;49.234;9.326;2024-03-29T00:45:32;1.80;;;0.83;;
6215;SDS011;3141;49.234;9.326;2024-03-29T00:46:15;1.38;;;0.90;;
6215;SDS011;3141;49.234;9.326;2024-03-29T00:46:58;2.37;;;1.10;;
6215;SDS011;3141;49.234;9.326;2024-03-29T00:47:40;3.10;;;0.87;;
6215;SDS011;3141;49.234;9.326;2024-03-29T00:48:23;2.23;;;0.80;;
6215;SDS011;3141;49.234;9.326;2024-03-29T00:49:05;2.10;;;0.93;;
6215;SDS011;3141;49.234;9.326;2024-03-29T00:49:47;2.33;;;0.87;;
6215;SDS011;3141;49.234;9.326;2024-03-29T00:50:30;3.03;;;1.10;;
6215;SDS011;3141;49.234;9.326;2024-03-29T00:51:12;2.43;;;1.10;;
6215;SDS011;3141;49.234;9.326;2024-03-29T00:51:54;3.37;;;1.10;;
6215;SDS011;3141;49.234;9.326;2024-03-29T00:52:37;4.10;;;1.37;;
6215;SDS011;3141;49.234;9.326;2024-03-29T00:53:22;2.53;;;1.02;;
6215;SDS011;3141;49.234;9.326;2024-03-29T00:54:04;5.20;;;2.03;;
6215;SDS011;3141;49.234;9.326;2024-03-29T00:54:47;3.07;;;1.73;;
6215;SDS011;3141;49.234;9.326;2024-03-29T00:55:29;1.87;;;1.37;;
6215;SDS011;3141;49.234;9.326;2024-03-29T00:56:12;1.50;;;1.40;;
6215;SDS011;3141;49.234;9.326;2024-03-29T00:56:54;2.43;;;1.90;;
6215;SDS011;3141;49.234;9.326;2024-03-29T00:57:37;2.20;;;2.00;;
6215;SDS011;3141;49.234;9.326;2024-03-29T00:58:19;2.57;;;2.17;;
6215;SDS011;3141;49.234;9.326;2024-03-29T00:59:01;2.00;;;1.80;;
6215;SDS011;3141;49.234;9.326;2024-03-29T00:59:44;3.07;;;2.37;;
6215;SDS011;3141;49.234;9.326;2024-03-29T01:00:26;6.77;;;2.50;;
6215;SDS011;3141;49.234;9.326;2024-03-29T01:01:09;3.93;;;2.00;;
6215;SDS011;3141;49.234;9.326;2024-03-29T01:01:51;4.90;;;2.03;;
6215;SDS011;3141;49.234;9.326;2024-03-29T01:02:33;2.17;;;1.73;;
6215;SDS011;3141;49.234;9.326;2024-03-29T01:03:16;2.83;;;1.80;;
6215;SDS011;3141;49.234;9.326;2024-03-29T01:03:58;4.10;;;1.90;;
6215;SDS011;3141;49.234;9.326;2024-03-29T01:04:41;2.50;;;1.97;;
6215;SDS011;3141;49.234;9.326;2024-03-29T01:05:24;2.77;;;1.83;;
6215;SDS011;3141;49.234;9.326;2024-03-29T01:06:06;3.43;;;2.07;;
6215;SDS011;3141;49.234;9.326;2024-03-29T01:06:48;4.53;;;1.87;;
6215;SDS011;3141;49.234;9.326;2024-03-29T01:07:31;1.97;;;1.70;;
6215;SDS011;3141;49.234;9.326;2024-03-29T01:08:13;1.60;;;1.50;;
6215;SDS011;3141;49.234;9.326;2024-03-29T01:08:55;2.90;;;1.83;;
6215;SDS011;3141;49.234;9.326;2024-03-29T01:09:38;3.50;;;1.95;;
6215;SDS011;3141;49.234;9.326;2024-03-29T01:10:21;3.27;;;1.60;;
6215;SDS011;3141;49.234;9.326;2024-03-29T01:11:04;5.90;;;1.85;;
6215;SDS011;3141;49.234;9.326;2024-03-29T01:11:46;2.13;;;1.80;;
6215;SDS011;3141;49.234;9.326;2024-03-29T01:12:29;4.53;;;2.03;;
6215;SDS011;3141;49.234;9.326;2024-03-29T01:13:11;2.27;;;2.07;;
6215;SDS011;3141;49.234;9.326;2024-03-29T01:13:53;5.47;;;2.07;;
6215;SDS011;3141;49.234;9.326;2024-03-29T01:14:36;2.20;;;1.80;;
6215;SDS011;3141;49.234;9.326;2024-03-29T01:15:18;4.83;;;2.17;;
6215;SDS011;3141;49.234;9.326;2024-03-29T01:16:02;3.55;;;1.90;;
6215;SDS011;3141;49.234;9.326;2024-03-29T01:16:44;4.27;;;2.60;;
6215;SDS011;3141;49.234;9.326;2024-03-29T01:17:26;4.27;;;1.70;;
6215;SDS011;3141;49.234;9.326;2024-03-29T01:18:09;1.90;;;1.60;;
6215;SDS011;3141;49.234;9.326;2024-03-29T01:18:52;2.88;;;2.17;;
6215;SDS011;3141;49.234;9.326;2024-03-29T01:19:34;5.63;;;1.87;;
6215;SDS011;3141;49.234;9.326;2024-03-29T01:20:17;2.07;;;1.87;;
6215;SDS011;3141;49.234;9.326;2024-03-29T01:20:59;3.70;;;2.10;;
6215;SDS011;3141;49.234;9.326;2024-03-29T01:21:41;1.73;;;1.63;;
6215;SDS011;3141;49.234;9.326;2024-03-29T01:22:24;3.70;;;2.20;;
6215;SDS011;3141;49.234;9.326;2024-03-29T01:23:10;4.15;;;2.13;;
6215;SDS011;3141;49.234;9.326;2024-03-29T01:23:52;5.50;;;2.13;;
6215;SDS011;3141;49.234;9.326;2024-03-29T01:24:35;2.40;;;2.10;;
6215;SDS011;3141;49.234;9.326;2024-03-29T01:25:17;3.53;;;1.93;;
6215;SDS011;3141;49.234;9.326;2024-03-29T01:26:00;2.00;;;1.80;;
6215;SDS011;3141;49.234;9.326;2024-03-29T01:26:42;3.97;;;2.43;;
6215;SDS011;3141;49.234;9.326;2024-03-29T01:27:25;4.67;;;2.03;;
6215;SDS011;3141;49.234;9.326;2024-03-29T01:28:07;3.47;;;2.40;;
6215;SDS011;3141;49.234;9.326;2024-03-29T01:28:49;3.53;;;1.80;;
6215;SDS011;3141;49.234;9.326;2024-03-29T01:29:32;6.93;;;2.10;;
6215;SDS011;3141;49.234;9.326;2024-03-29T01:30:14;3.73;;;2.00;;
6215;SDS011;3141;49.234;9.326;2024-03-29T01:30:56;9.37;;;1.97;;
6215;SDS011;3141;49.234;9.326;2024-03-29T01:31:40;3.17;;;2.05;;
6215;SDS011;3141;49.234;9.326;2024-03-29T01:32:22;8.10;;;2.10;;
6215;SDS011;3141;49.234;9.326;2024-03-29T01:33:05;2.00;;;1.80;;
6215;SDS011;3141;49.234;9.326;2024-03-29T01:33:51;3.88;;;2.72;;
6215;SDS011;3141;49.234;9.326;2024-03-29T01:34:33;2.75;;;1.83;;
6215;SDS011;3141;49.234;9.326;2024-03-29T01:35:16;3.40;;;1.83;;
6215;SDS011;3141;49.234;9.326;2024-03-29T01:35:58;2.50;;;1.77;;
6215;SDS011;3141;49.234;9.326;2024-03-29T01:36:40;2.00;;;1.90;;
6215;SDS011;3141;49.234;9.326;2024-03-29T01:37:23;3.13;;;1.70;;
6215;SDS011;3141;49.234;9.326;2024-03-29T01:38:05;2.93;;;1.90;;
6215;SDS011;3141;49.234;9.326;2024-03-29T01:38:47;3.40;;;2.00;;
6215;SDS011;3141;49.234;9.326;2024-03-29T01:39:31;2.80;;;1.90;;
6215;SDS011;3141;49.234;9.326;2024-03-29T01:40:13;5.63;;;2.00;;
6215;SDS011;3141;49.234;9.326;2024-03-29T01:40:56;4.43;;;2.10;;
6215;SDS011;3141;49.234;9.326;2024-03-29T01:41:38;1.60;;;1.50;;
6215;SDS011;3141;49.234;9.326;2024-03-29T01:42:20;2.90;;;1.77;;
6215;SDS011;3141;49.234;9.326;2024-03-29T01:43:02;3.07;;;1.80;;
6215;SDS011;3141;49.234;9.326;2024-03-29T01:43:45;4.13;;;2.23;;
6215;SDS011;3141;49.234;9.326;2024-03-29T01:44:27;3.13;;;2.10;;
6215;SDS011;3141;49.234;9.326;2024-03-29T01:45:09;2.43;;;2.00;;
6215;SDS011;3141;49.234;9.326;2024-03-29T01:45:53;2.63;;;2.20;;
6215;SDS011;3141;49.234;9.326;2024-03-29T01:46:36;2.78;;;1.90;;
6215;SDS011;3141;49.234;9.326;2024-03-29T01:47:19;5.53;;;1.80;;
6215;SDS011;3141;49.234;9.326;2024-03-29T01:48:01;3.80;;;1.83;;
6215;SDS011;3141;49.234;9.326;2024-03-29T01:48:45;3.50;;;2.00;;
6215;SDS011;3141;49.234;9.326;2024-03-29T01:49:29;5.25;;;1.58;;
6215;SDS011;3141;49.234;9.326;2024-03-29T01:50:12;2.35;;;1.90;;
6215;SDS011;3141;49.234;9.326;2024-03-29T01:50:55;2.87;;;1.70;;
6215;SDS011;3141;49.234;9.326;2024-03-29T01:51:39;2.45;;;1.70;;
6215;SDS011;3141;49.234;9.326;2024-03-29T01:52:23;3.70;;;1.85;;
6215;SDS011;3141;49.234;9.326;2024-03-29T01:53:05;4.23;;;3.40;;
6215;SDS011;3141;49.234;9.326;2024-03-29T01:53:50;3.40;;;2.10;;
6215;SDS011;3141;49.234;9.326;2024-03-29T01:54:36;2.38;;;1.83;;
6215;SDS011;3141;49.234;9.326;2024-03-29T01:55:18;2.93;;;2.20;;
6215;SDS011;3141;49.234;9.326;2024-03-29T01:56:01;3.93;;;2.13;;
6215;SDS011;3141;49.234;9.326;2024-03-29T01:56:44;2.45;;;2.10;;
6215;SDS011;3141;49.234;9.326;2024-03-29T01:57:27;2.30;;;1.57;;
6215;SDS011;3141;49.234;9.326;2024-03-29T01:58:10;4.83;;;2.20;;
6215;SDS011;3141;49.234;9.326;2024-03-29T01:58:53;2.22;;;2.00;;
6215;SDS011;3141;49.234;9.326;2024-03-29T01:59:40;5.90;;;2.42;;
6215;SDS011;3141;49.234;9.326;2024-03-29T02:00:24;3.53;;;2.47;;
6215;SDS011;3141;49.234;9.326;2024-03-29T02:01:08;2.72;;;1.92;;
6215;SDS011;3141;49.234;9.326;2024-03-29T02:01:51;6.73;;;2.13;;
6215;SDS011;3141;49.234;9.326;2024-03-29T02:02:33;4.20;;;2.00;;
6215;SDS011;3141;49.234;9.326;2024-03-29T02:03:16;3.27;;;2.27;;
6215;SDS011;3141;49.234;9.326;2024-03-29T02:03:58;2.53;;;2.00;;
6215;SDS011;3141;49.234;9.326;2024-03-29T02:04:40;3.03;;;2.13;;
6215;SDS011;3141;49.234;9.326;2024-03-29T02:05:23;4.23;;;2.03;;
6215;SDS011;3141;49.234;9.326;2024-03-29T02:06:06;2.92;;;2.00;;
6215;SDS011;3141;49.234;9.326;2024-03-29T02:06:50;2.60;;;2.03;;
6215;SDS011;3141;49.234;9.326;2024-03-29T02:07:33;3.10;;;2.20;;
6215;SDS011;3141;49.234;9.326;2024-03-29T02:08:17;6.30;;;2.50;;
6215;SDS011;3141;49.234;9.326;2024-03-29T02:08:59;4.03;;;1.80;;
6215;SDS011;3141;49.234;9.326;2024-03-29T02:09:41;2.73;;;1.63;;
6215;SDS011;3141;49.234;9.326;2024-03-29T02:10:24;4.30;;;2.40;;
6215;SDS011;3141;49.234;9.326;2024-03-29T02:11:06;2.53;;;1.80;;
6215;SDS011;3141;49.234;9.326;2024-03-29T02:11:48;2.90;;;1.80;;
6215;SDS011;3141;49.234;9.326;2024-03-29T02:12:33;3.42;;;1.88;;
6215;SDS011;3141;49.234;9.326;2024-03-29T02:13:15;5.70;;;2.33;;
6215;SDS011;3141;49.234;9.326;2024-03-29T02:13:57;2.17;;;1.77;;
6215;SDS011;3141;49.234;9.326;2024-03-29T02:14:41;6.05;;;1.90;;
6215;SDS011;3141;49.234;9.326;2024-03-29T02:15:24;3.77;;;1.93;;
6215;SDS011;3141;49.234;9.326;2024-03-29T02:16:07;2.85;;;1.85;;
6215;SDS011;3141;49.234;9.326;2024-03-29T02:16:49;2.33;;;1.80;;
6215;SDS011;3141;49.234;9.326;2024-03-29T02:17:32;4.27;;;2.30;;
6215;SDS011;3141;49.234;9.326;2024-03-29T02:18:14;4.60;;;1.80;;
6215;SDS011;3141;49.234;9.326;2024-03-29T02:18:57;4.60;;;2.27;;
6215;SDS011;3141;49.234;9.326;2024-03-29T02:19:39;5.47;;;1.87;;
6215;SDS011;3141;49.234;9.326;2024-03-29T02:20:25;3.22;;;1.92;;
6215;SDS011;3141;49.234;9.326;2024-03-29T02:21:12;3.65;;;1.70;;
6215;SDS011;3141;49.234;9.326;2024-03-29T02:21:54;2.20;;;1.50;;
6215;SDS011;3141;49.234;9.326;2024-03-29T02:22:41;3.28;;;2.15;;
6215;SDS011;3141;49.234;9.326;2024-03-29T02:23:32;3.72;;;1.58;;
6215;SDS011;3141;49.234;9.326;2024-03-29T02:24:18;3.17;;;1.80;;
6215;SDS011;3141;49.234;9.326;2024-03-29T02:25:00;3.17;;;1.80;;
6215;SDS011;3141;49.234;9.326;2024-03-29T02:25:43;4.77;;;1.70;;
6215;SDS011;3141;49.234;9.326;2024-03-29T02:26:26;2.73;;;1.70;;
6215;SDS011;3141;49.234;9.326;2024-03-29T02:27:13;3.90;;;1.83;;
6215;SDS011;3141;49.234;9.326;2024-03-29T02:27:55;2.33;;;1.73;;
6215;SDS011;3141;49.234;9.326;2024-03-29T02:28:38;5.33;;;1.97;;
6215;SDS011;3141;49.234;9.326;2024-03-29T02:29:20;5.20;;;1.70;;
6215;SDS011;3141;49.234;9.326;2024-03-29T02:30:03;3.67;;;2.13;;
6215;SDS011;3141;49.234;9.326;2024-03-29T02:30:47;8.77;;;1.60;;
6215;SDS011;3141;49.234;9.326;2024-03-29T02:31:29;3.07;;;1.50;;
6215;SDS011;3141;49.234;9.326;2024-03-29T02:32:12;2.47;;;2.10;;
6215;SDS011;3141;49.234;9.326;2024-03-29T02:32:54;5.70;;;1.90;;
6215;SDS011;3141;49.234;9.326;2024-03-29T02:33:36;6.33;;;1.87;;
6215;SDS011;3141;49.234;9.326;2024-03-29T02:34:19;2.70;;;1.57;;
6215;SDS011;3141;49.234;9.326;2024-03-29T02:35:01;2.20;;;1.90;;
6215;SDS011;3141;49.234;9.326;2024-03-29T02:35:44;3.33;;;2.00;;
6215;SDS011;3141;49.234;9.326;2024-03-29T02:36:26;4.00;;;2.40;;
6215;SDS011;3141;49.234;9.326;2024-03-29T02:37:08;5.87;;;2.60;;
6215;SDS011;3141;49.234;9.326;2024-03-29T02:37:51;5.23;;;2.10;;
6215;SDS011;3141;49.234;9.326;2024-03-29T02:38:34;3.40;;;2.30;;
6215;SDS011;3141;49.234;9.326;2024-03-29T02:39:16;6.97;;;2.27;;
6215;SDS011;3141;49.234;9.326;2024-03-29T02:39:58;3.93;;;2.27;;
6215;SDS011;3141;49.234;9.326;2024-03-29T02:40:40;3.90;;;1.97;;
6215;SDS011;3141;49.234;9.326;2024-03-29T02:41:23;3.10;;;1.90;;
6215;SDS011;3141;49.234;9.326;2024-03-29T02:42:05;5.00;;;2.00;;
6215;SDS011;3141;49.234;9.326;2024-03-29T02:42:48;3.60;;;2.10;;
6215;SDS011;3141;49.234;9.326;2024-03-29T02:43:31;2.90;;;1.90;;
6215;SDS011;3141;49.234;9.326;2024-03-29T02:44:13;3.20;;;1.90;;
6215;SDS011;3141;49.234;9.326;2024-03-29T02:44:57;3.40;;;1.58;;
6215;SDS011;3141;49.234;9.326;2024-03-29T02:45:40;2.93;;;2.00;;
6215;SDS011;3141;49.234;9.326;2024-03-29T02:46:23;4.27;;;1.70;;
6215;SDS011;3141;49.234;9.326;2024-03-29T02:47:06;3.97;;;1.98;;
6215;SDS011;3141;49.234;9.326;2024-03-29T02:47:48;1.87;;;1.50;;
6215;SDS011;3141;49.234;9.326;2024-03-29T02:48:30;5.40;;;1.87;;
6215;SDS011;3141;49.234;9.326;2024-03-29T02:49:13;3.80;;;1.60;;
6215;SDS011;3141;49.234;9.326;2024-03-29T02:49:55;3.20;;;1.33;;
6215;SDS011;3141;49.234;9.326;2024-03-29T02:50:37;6.03;;;1.73;;
6215;SDS011;3141;49.234;9.326;2024-03-29T02:51:20;3.27;;;1.77;;
6215;SDS011;3141;49.234;9.326;2024-03-29T02:52:02;3.80;;;1.77;;
6215;SDS011;3141;49.234;9.326;2024-03-29T02:52:44;3.90;;;2.00;;
6215;SDS011;3141;49.234;9.326;2024-03-29T02:53:27;2.53;;;1.80;;
6215;SDS011;3141;49.234;9.326;2024-03-29T02:54:09;1.40;;;1.30;;
6215;SDS011;3141;49.234;9.326;2024-03-29T02:54:51;3.03;;;1.77;;
6215;SDS011;3141;49.234;9.326;2024-03-29T02:55:34;3.93;;;1.70;;
6215;SDS011;3141;49.234;9.326;2024-03-29T02:56:17;4.50;;;1.70;;
6215;SDS011;3141;49.234;9.326;2024-03-29T02:57:06;6.18;;;2.42;;
6215;SDS011;3141;49.234;9.326;2024-03-29T02:57:48;7.63;;;3.20;;
6215;SDS011;3141;49.234;9.326;2024-03-29T02:58:31;3.47;;;1.87;;
6215;SDS011;3141;49.234;9.326;2024-03-29T02:59:13;2.37;;;1.93;;
6215;SDS011;3141;49.234;9.326;2024-03-29T02:59:55;7.50;;;1.67;;
6215;SDS011;3141;49.234;9.326;2024-03-29T03:00:38;3.60;;;1.70;;
6215;SDS011;3141;49.234;9.326;2024-03-29T03:01:20;4.60;;;2.00;;
6215;SDS011;3141;49.234;9.326;2024-03-29T03:02:02;4.03;;;2.10;;
6215;SDS011;3141;49.234;9.326;2024-03-29T03:02:45;1.90;;;1.40;;
6215;SDS011;3141;49.234;9.326;2024-03-29T03:03:27;3.47;;;1.83;;
6215;SDS011;3141;49.234;9.326;2024-03-29T03:04:09;6.47;;;1.97;;
6215;SDS011;3141;49.234;9.326;2024-03-29T03:04:52;3.17;;;1.80;;
6215;SDS011;3141;49.234;9.326;2024-03-29T03:05:34;3.53;;;1.77;;
6215;SDS011;3141;49.234;9.326;2024-03-29T03:06:16;3.07;;;1.60;;
6215;SDS011;3141;49.234;9.326;2024-03-29T03:06:59;8.40;;;1.90;;
6215;SDS011;3141;49.234;9.326;2024-03-29T03:08:01;6.18;;;1.73;;
6215;SDS011;3141;49.234;9.326;2024-03-29T03:09:02;2.65;;;1.67;;
6215;SDS011;3141;49.234;9.326;2024-03-29T03:10:03;3.50;;;1.70;;
6215;SDS011;3141;49.234;9.326;2024-03-29T03:11:04;4.38;;;1.80;;
6215;SDS011;3141;49.234;9.326;2024-03-29T03:11:47;2.63;;;1.90;;
6215;SDS011;3141;49.234;9.326;2024-03-29T03:12:29;4.90;;;1.70;;
6215;SDS011;3141;49.234;9.326;2024-03-29T03:13:12;2.35;;;1.80;;
6215;SDS011;3141;49.234;9.326;2024-03-29T03:13:54;1.93;;;1.57;;
6215;SDS011;3141;49.234;9.326;2024-03-29T03:14:37;3.60;;;1.30;;
6215;SDS011;3141;49.234;9.326;2024-03-29T03:15:19;2.80;;;1.77;;
6215;SDS011;3141;49.234;9.326;2024-03-29T03:16:01;3.90;;;2.17;;
6215;SDS011;3141;49.234;9.326;2024-03-29T03:16:45;3.85;;;2.20;;
6215;SDS011;3141;49.234;9.326;2024-03-29T03:17:27;6.73;;;2.20;;
6215;SDS011;3141;49.234;9.326;2024-03-29T03:18:10;6.40;;;2.10;;
6215;SDS011;3141;49.234;9.326;2024-03-29T03:18:52;5.40;;;1.90;;
6215;SDS011;3141;49.234;9.326;2024-03-29T03:19:34;6.03;;;1.60;;
6215;SDS011;3141;49.234;9.326;2024-03-29T03:20:17;7.23;;;2.40;;
6215;SDS011;3141;49.234;9.326;2024-03-29T03:20:59;4.13;;;2.00;;
6215;SDS011;3141;49.234;9.326;2024-03-29T03:21:41;4.13;;;2.07;;
6215;SDS011;3141;49.234;9.326;2024-03-29T03:22:24;7.20;;;2.60;;
6215;SDS011;3141;49.234;9.326;2024-03-29T03:23:06;3.27;;;1.90;;
6215;SDS011;3141;49.234;9.326;2024-03-29T03:23:49;2.43;;;2.20;;
6215;SDS011;3141;49.234;9.326;2024-03-29T03:24:31;4.90;;;1.80;;
6215;SDS011;3141;49.234;9.326;2024-03-29T03:25:13;5.83;;;2.27;;
6215;SDS011;3141;49.234;9.326;2024-03-29T03:25:56;3.87;;;2.17;;
6215;SDS011;3141;49.234;9.326;2024-03-29T03:26:40;2.72;;;1.88;;
6215;SDS011;3141;49.234;9.326;2024-03-29T03:27:23;2.37;;;1.77;;
6215;SDS011;3141;49.234;9.326;2024-03-29T03:28:06;3.78;;;2.00;;
6215;SDS011;3141;49.234;9.326;2024-03-29T03:28:49;5.10;;;2.07;;
6215;SDS011;3141;49.234;9.326;2024-03-29T03:29:31;3.80;;;1.90;;
6215;SDS011;3141;49.234;9.326;2024-03-29T03:30:14;3.30;;;1.40;;
6215;SDS011;3141;49.234;9.326;2024-03-29T03:30:57;6.43;;;1.63;;
6215;SDS011;3141;49.234;9.326;2024-03-29T03:31:39;3.87;;;1.80;;
6215;SDS011;3141;49.234;9.326;2024-03-29T03:32:21;4.97;;;1.80;;
6215;SDS011;3141;49.234;9.326;2024-03-29T03:33:04;1.40;;;1.30;;
6215;SDS011;3141;49.234;9.326;2024-03-29T03:33:48;5.03;;;1.40;;
6215;SDS011;3141;49.234;9.326;2024-03-29T03:34:32;1.60;;;1.50;;
6215;SDS011;3141;49.234;9.326;2024-03-29T03:35:17;3.72;;;1.92;;
6215;SDS011;3141;49.234;9.326;2024-03-29T03:35:59;5.43;;;1.53;;
6215;SDS011;3141;49.234;9.326;2024-03-29T03:36:41;1.53;;;1.43;;
6215;SDS011;3141;49.234;9.326;2024-03-29T03:37:23;4.13;;;1.60;;
6215;SDS011;3141;49.234;9.326;2024-03-29T03:38:06;2.27;;;1.43;;
6215;SDS011;3141;49.234;9.326;2024-03-29T03:38:49;2.70;;;1.50;;
6215;SDS011;3141;49.234;9.326;2024-03-29T03:39:31;2.90;;;1.80;;
6215;SDS011;3141;49.234;9.326;2024-03-29T03:40:14;1.97;;;1.30;;
6215;SDS011;3141;49.234;9.326;2024-03-29T03:40:56;3.07;;;1.73;;
6215;SDS011;3141;49.234;9.326;2024-03-29T03:41:39;4.17;;;1.70;;
6215;SDS011;3141;49.234;9.326;2024-03-29T03:42:21;3.77;;;1.67;;
6215;SDS011;3141;49.234;9.326;2024-03-29T03:43:07;1.77;;;1.40;;
6215;SDS011;3141;49.234;9.326;2024-03-29T03:43:49;2.70;;;1.40;;
6215;SDS011;3141;49.234;9.326;2024-03-29T03:44:32;1.53;;;1.43;;
6215;SDS011;3141;49.234;9.326;2024-03-29T03:45:14;2.23;;;1.20;;
6215;SDS011;3141;49.234;9.326;2024-03-29T03:46:00;1.57;;;1.47;;
6215;SDS011;3141;49.234;9.326;2024-03-29T03:46:43;3.08;;;1.40;;
6215;SDS011;3141;49.234;9.326;2024-03-29T03:47:25;5.70;;;1.80;;
6215;SDS011;3141;49.234;9.326;2024-03-29T03:48:08;3.23;;;2.00;;
6215;SDS011;3141;49.234;9.326;2024-03-29T03:48:52;4.30;;;2.00;;
6215;SDS011;3141;49.234;9.326;2024-03-29T03:49:35;1.63;;;1.40;;
6215;SDS011;3141;49.234;9.326;2024-03-29T03:50:17;3.13;;;1.43;;
6215;SDS011;3141;49.234;9.326;2024-03-29T03:51:00;1.60;;;1.50;;
6215;SDS011;3141;49.234;9.326;2024-03-29T03:51:42;1.53;;;1.37;;
6215;SDS011;3141;49.234;9.326;2024-03-29T03:52:24;4.10;;;1.57;;
6215;SDS011;3141;49.234;9.326;2024-03-29T03:53:07;3.30;;;1.43;;
6215;SDS011;3141;49.234;9.326;2024-03-29T03:53:50;2.23;;;1.60;;
6215;SDS011;3141;49.234;9.326;2024-03-29T03:54:32;1.80;;;1.40;;
6215;SDS011;3141;49.234;9.326;2024-03-29T03:55:14;2.47;;;1.37;;
6215;SDS011;3141;49.234;9.326;2024-03-29T03:55:57;2.73;;;1.13;;
6215;SDS011;3141;49.234;9.326;2024-03-29T03:56:39;2.20;;;1.40;;
6215;SDS011;3141;49.234;9.326;2024-03-29T03:57:22;3.27;;;1.53;;
6215;SDS011;3141;49.234;9.326;2024-03-29T03:58:04;1.40;;;1.30;;
6215;SDS011;3141;49.234;9.326;2024-03-29T03:58:46;3.63;;;1.40;;
6215;SDS011;3141;49.234;9.326;2024-03-29T03:59:29;1.43;;;1.33;;
6215;SDS011;3141;49.234;9.326;2024-03-29T04:00:11;2.73;;;1.30;;
6215;SDS011;3141;49.234;9.326;2024-03-29T04:00:54;3.17;;;1.20;;
6215;SDS011;3141;49.234;9.326;2024-03-29T04:01:36;1.90;;;1.10;;
6215;SDS011;3141;49.234;9.326;2024-03-29T04:02:18;2.27;;;1.27;;
6215;SDS011;3141;49.234;9.326;2024-03-29T04:03:01;1.80;;;1.40;;
6215;SDS011;3141;49.234;9.326;2024-03-29T04:03:46;1.38;;;0.90;;
6215;SDS011;3141;49.234;9.326;2024-03-29T04:04:29;1.83;;;1.00;;
6215;SDS011;3141;49.234;9.326;2024-03-29T04:05:11;0.87;;;0.87;;
6215;SDS011;3141;49.234;9.326;2024-03-29T04:05:53;4.50;;;1.10;;
6215;SDS011;3141;49.234;9.326;2024-03-29T04:06:35;1.87;;;0.90;;
6215;SDS011;3141;49.234;9.326;2024-03-29T04:07:18;1.87;;;0.60;;
6215;SDS011;3141;49.234;9.326;2024-03-29T04:08:00;1.70;;;1.07;;
6215;SDS011;3141;49.234;9.326;2024-03-29T04:08:46;1.60;;;1.10;;
6215;SDS011;3141;49.234;9.326;2024-03-29T04:09:28;1.50;;;1.23;;
6215;SDS011;3141;49.234;9.326;2024-03-29T04:10:11;2.00;;;1.00;;
6215;SDS011;3141;49.234;9.326;2024-03-29T04:10:53;1.03;;;0.93;;
6215;SDS011;3141;49.234;9.326;2024-03-29T04:11:36;3.07;;;1.10;;
6215;SDS011;3141;49.234;9.326;2024-03-29T04:12:18;1.63;;;0.90;;
6215;SDS011;3141;49.234;9.326;2024-03-29T04:13:00;3.73;;;1.17;;
6215;SDS011;3141;49.234;9.326;2024-03-29T04:13:44;3.67;;;1.30;;
6215;SDS011;3141;49.234;9.326;2024-03-29T04:14:27;3.58;;;1.38;;
6215;SDS011;3141;49.234;9.326;2024-03-29T04:15:10;1.20;;;1.10;;
6215;SDS011;3141;49.234;9.326;2024-03-29T04:15:52;1.13;;;1.03;;
6215;SDS011;3141;49.234;9.326;2024-03-29T04:16:34;1.70;;;1.27;;
6215;SDS011;3141;49.234;9.326;2024-03-29T04:17:17;1.73;;;1.00;;
6215;SDS011;3141;49.234;9.326;2024-03-29T04:17:59;7.23;;;1.50;;
6215;SDS011;3141;49.234;9.326;2024-03-29T04:18:43;3.00;;;1.15;;
6215;SDS011;3141;49.234;9.326;2024-03-29T04:19:25;1.87;;;1.07;;
6215;SDS011;3141;49.234;9.326;2024-03-29T04:20:08;4.57;;;1.17;;
6215;SDS011;3141;49.234;9.326;2024-03-29T04:20:55;7.90;;;1.50;;
6215;SDS011;3141;49.234;9.326;2024-03-29T04:21:41;2.58;;;1.20;;
6215;SDS011;3141;49.234;9.326;2024-03-29T04:22:30;2.08;;;1.13;;
6215;SDS011;3141;49.234;9.326;2024-03-29T04:23:12;4.60;;;2.33;;
6215;SDS011;3141;49.234;9.326;2024-03-29T04:23:55;1.73;;;1.27;;
6215;SDS011;3141;49.234;9.326;2024-03-29T04:24:37;1.20;;;1.10;;
6215;SDS011;3141;49.234;9.326;2024-03-29T04:25:19;3.10;;;1.43;;
6215;SDS011;3141;49.234;9.326;2024-03-29T04:26:02;1.20;;;1.10;;
6215;SDS011;3141;49.234;9.326;2024-03-29T04:26:44;1.67;;;0.90;;